Time;durP1;ratioP1;P1;durP2;ratioP2;P2;SDS_P1;SDS_P2;PMS_P1;PMS_P2;Temp;Humidity;BMP_temperature;BMP_pressure;BME280_temperature;BME280_humidity;BME280_pressure;Samples;Min_cycle;Max_cycle;Signal;HPM_P1;HPM_P2
2022/06/15 00:03:00;;;;;;;43.10;23.17;;;;;;;;;;6321050;28;20044;-77
2022/06/15 00:06:06;;;;;;;127.57;69.40;;;;;;;;;;6321538;28;20591;-77
2022/06/15 00:09:10;;;;;;;28.80;13.48;;;;;;;;;;6326428;28;20349;-77
2022/06/15 00:12:12;;;;;;;21.83;11.75;;;;;;;;;;6323779;28;20055;-76
2022/06/15 00:15:14;;;;;;;53.45;30.55;;;;;;;;;;6323806;28;20043;-78
2022/06/15 00:18:16;;;;;;;8.98;4.30;;;;;;;;;;6320976;28;20044;-77
2022/06/15 00:21:18;;;;;;;5.82;3.13;;;;;;;;;;6321803;28;20097;-78
2022/06/15 00:24:22;;;;;;;4.90;3.05;;;;;;;;;;6329583;28;20052;-75
2022/06/15 00:27:23;;;;;;;;;;;;;;;;;;6324407;28;20066;-76
2022/06/15 00:30:25;;;;;;;8.63;3.08;;;;;;;;;;6320550;28;20137;-79
2022/06/15 00:33:27;;;;;;;7.35;2.88;;;;;;;;;;6317389;28;20047;-78
2022/06/15 00:36:29;;;;;;;10.05;3.60;;;;;;;;;;6321750;28;20379;-79
2022/06/15 00:39:33;;;;;;;6.70;3.00;;;;;;;;;;6321852;28;20040;-80
2022/06/15 00:42:35;;;;;;;5.32;2.60;;;;;;;;;;6324626;28;20052;-80
2022/06/15 00:45:37;;;;;;;6.80;2.92;;;;;;;;;;6326492;28;20385;-79
2022/06/15 00:48:38;;;;;;;4.63;2.40;;;;;;;;;;6325094;28;20052;-83
2022/06/15 00:51:40;;;;;;;7.80;2.95;;;;;;;;;;6322083;28;20040;-80
2022/06/15 00:54:46;;;;;;;7.80;2.60;;;;;;;;;;6324030;28;20047;-79
2022/06/15 00:57:48;;;;;;;4.90;3.20;;;;;;;;;;6324365;28;20051;-81
2022/06/15 01:00:53;;;;;;;5.75;2.60;;;;;;;;;;6326154;28;20064;-79
2022/06/15 01:03:55;;;;;;;4.30;2.50;;;;;;;;;;6323792;28;20132;-79
2022/06/15 01:07:05;;;;;;;4.68;2.53;;;;;;;;;;6326223;28;20086;-77
2022/06/15 01:10:16;;;;;;;4.82;2.50;;;;;;;;;;6325761;28;20051;-76
2022/06/15 01:13:34;;;;;;;5.95;2.63;;;;;;;;;;6324569;28;20143;-80
2022/06/15 01:16:40;;;;;;;3.97;2.28;;;;;;;;;;6329297;28;20208;-77
2022/06/15 01:20:04;;;;;;;5.35;2.55;;;;;;;;;;6328044;28;20055;-79
2022/06/15 01:23:27;;;;;;;3.92;2.40;;;;;;;;;;6326296;28;20055;-79
2022/06/15 01:27:12;;;;;;;4.18;2.40;;;;;;;;;;6327195;28;20155;-78
2022/06/15 01:30:22;;;;;;;10.07;2.90;;;;;;;;;;6321317;28;20141;-77
2022/06/15 01:33:28;;;;;;;4.63;2.60;;;;;;;;;;6326783;28;20052;-77
2022/06/15 01:36:40;;;;;;;8.85;2.63;;;;;;;;;;6328781;28;20273;-79
2022/06/15 01:39:46;;;;;;;4.35;2.17;;;;;;;;;;6324865;28;20417;-82
2022/06/15 01:42:52;;;;;;;6.38;2.60;;;;;;;;;;6325607;28;20270;-80
2022/06/15 01:45:55;;;;;;;5.47;2.33;;;;;;;;;;6327865;28;20040;-79
2022/06/15 01:48:57;;;;;;;;;;;;;;;;;;6331754;28;20040;-81
2022/06/15 01:51:59;;;;;;;6.15;2.38;;;;;;;;;;6327952;28;19946;-78
2022/06/15 01:55:07;;;;;;;6.53;2.30;;;;;;;;;;6326870;28;20051;-78
2022/06/15 01:58:10;;;;;;;4.90;2.20;;;;;;;;;;6326681;28;20350;-81
2022/06/15 02:01:17;;;;;;;5.25;2.60;;;;;;;;;;6324516;28;20051;-79
2022/06/15 02:04:24;;;;;;;5.45;2.33;;;;;;;;;;6320201;28;20128;-76
2022/06/15 02:07:30;;;;;;;5.40;2.30;;;;;;;;;;6331659;28;20051;-79
2022/06/15 02:10:35;;;;;;;6.68;2.53;;;;;;;;;;6328252;28;20056;-76
2022/06/15 02:13:42;;;;;;;3.78;1.90;;;;;;;;;;6328668;28;20218;-76
2022/06/15 02:16:48;;;;;;;6.05;2.53;;;;;;;;;;6324406;28;20101;-74
2022/06/15 02:19:53;;;;;;;6.05;2.28;;;;;;;;;;6325468;28;20060;-73
2022/06/15 02:22:58;;;;;;;7.93;2.63;;;;;;;;;;6324680;28;20048;-77
2022/06/15 02:26:00;;;;;;;5.55;2.42;;;;;;;;;;6327173;28;20056;-76
2022/06/15 02:29:06;;;;;;;5.07;2.30;;;;;;;;;;6322627;28;20126;-76
2022/06/15 02:32:10;;;;;;;2.75;1.98;;;;;;;;;;6326311;28;20063;-75
2022/06/15 02:35:13;;;;;;;3.78;2.10;;;;;;;;;;6326646;28;20075;-75
2022/06/15 02:38:14;;;;;;;2.60;2.40;;;;;;;;;;6325926;28;20275;-76
2022/06/15 02:41:17;;;;;;;4.90;2.38;;;;;;;;;;6327540;28;20054;-77
2022/06/15 02:44:19;;;;;;;5.25;2.40;;;;;;;;;;6324561;28;20058;-77
2022/06/15 02:47:23;;;;;;;4.97;2.60;;;;;;;;;;6324310;28;20319;-76
2022/06/15 02:50:29;;;;;;;3.60;2.20;;;;;;;;;;6328771;28;20052;-76
2022/06/15 02:53:32;;;;;;;5.47;2.15;;;;;;;;;;6326430;28;20044;-77
2022/06/15 02:56:34;;;;;;;8.70;2.72;;;;;;;;;;6328776;28;20100;-75
2022/06/15 02:59:36;;;;;;;5.40;2.65;;;;;;;;;;6312807;28;20063;-76
2022/06/15 03:02:39;;;;;;;5.82;2.22;;;;;;;;;;6309993;28;20044;-76
2022/06/15 03:05:41;;;;;;;2.65;2.00;;;;;;;;;;6327310;28;20051;-76
2022/06/15 03:08:43;;;;;;;3.63;2.08;;;;;;;;;;6323638;28;20047;-76
2022/06/15 03:11:45;;;;;;;4.07;2.35;;;;;;;;;;6327122;28;20063;-76
2022/06/15 03:14:47;;;;;;;3.20;2.00;;;;;;;;;;6325937;28;20101;-75
2022/06/15 03:17:52;;;;;;;2.90;1.92;;;;;;;;;;6321926;28;20056;-75
2022/06/15 03:20:56;;;;;;;5.45;2.85;;;;;;;;;;6318714;28;20055;-76
2022/06/15 03:23:58;;;;;;;4.22;2.05;;;;;;;;;;6324169;28;20808;-76
2022/06/15 03:26:59;;;;;;;5.10;2.53;;;;;;;;;;6324910;28;20088;-76
2022/06/15 03:30:04;;;;;;;5.43;2.50;;;;;;;;;;6324670;28;20048;-76
2022/06/15 03:33:07;;;;;;;7.10;2.70;;;;;;;;;;6322810;28;20095;-76
2022/06/15 03:36:08;;;;;;;4.35;3.00;;;;;;;;;;6320313;28;20056;-78
2022/06/15 03:39:10;;;;;;;5.97;3.28;;;;;;;;;;6318343;28;20048;-76
2022/06/15 03:42:16;;;;;;;3.78;2.30;;;;;;;;;;6317719;28;20246;-75
2022/06/15 03:45:18;;;;;;;5.15;2.55;;;;;;;;;;6324608;28;20373;-74
2022/06/15 03:48:21;;;;;;;4.47;2.90;;;;;;;;;;6325038;28;20052;-75
2022/06/15 03:51:23;;;;;;;4.97;2.47;;;;;;;;;;6324936;28;20051;-77
2022/06/15 03:54:24;;;;;;;5.18;2.42;;;;;;;;;;6328683;28;20327;-77
2022/06/15 03:57:26;;;;;;;5.68;2.60;;;;;;;;;;6325472;28;20056;-76
2022/06/15 04:00:30;;;;;;;5.70;2.50;;;;;;;;;;6321259;28;20252;-76
2022/06/15 04:03:33;;;;;;;5.15;2.42;;;;;;;;;;6327471;28;20090;-76
2022/06/15 04:06:34;;;;;;;6.25;2.58;;;;;;;;;;6322485;28;20093;-77
2022/06/15 04:09:36;;;;;;;5.00;2.70;;;;;;;;;;6321914;28;20082;-76
2022/06/15 04:12:38;;;;;;;3.67;2.53;;;;;;;;;;6325274;28;20059;-75
2022/06/15 04:15:40;;;;;;;5.20;2.65;;;;;;;;;;6329904;28;20063;-76
2022/06/15 04:18:43;;;;;;;4.60;2.80;;;;;;;;;;6323438;28;20052;-75
2022/06/15 04:21:45;;;;;;;6.32;2.70;;;;;;;;;;6322208;28;20061;-74
2022/06/15 04:24:46;;;;;;;6.55;3.22;;;;;;;;;;6326656;28;20060;-76
2022/06/15 04:27:48;;;;;;;6.03;2.85;;;;;;;;;;6326182;28;20044;-77
2022/06/15 04:30:49;;;;;;;6.35;2.70;;;;;;;;;;6322749;28;20055;-76
2022/06/15 04:33:53;;;;;;;3.53;2.75;;;;;;;;;;6324374;28;20048;-76
2022/06/15 04:36:54;;;;;;;7.10;2.67;;;;;;;;;;6327959;28;20265;-75
2022/06/15 04:39:56;;;;;;;4.00;2.75;;;;;;;;;;6320056;28;20048;-75
2022/06/15 04:42:58;;;;;;;5.90;3.03;;;;;;;;;;6321055;28;20056;-75
2022/06/15 04:46:00;;;;;;;5.70;2.60;;;;;;;;;;6325426;28;20087;-77
2022/06/15 04:49:03;;;;;;;4.20;2.60;;;;;;;;;;6327401;28;20353;-76
2022/06/15 04:52:06;;;;;;;4.65;2.80;;;;;;;;;;6327175;28;20044;-75
2022/06/15 04:55:08;;;;;;;4.88;3.05;;;;;;;;;;6332317;28;20118;-75
2022/06/15 04:58:10;;;;;;;6.63;3.45;;;;;;;;;;6327903;28;20058;-75
2022/06/15 05:01:12;;;;;;;5.88;3.70;;;;;;;;;;6327682;28;20047;-75
2022/06/15 05:04:14;;;;;;;10.90;4.47;;;;;;;;;;6328298;28;20074;-76
2022/06/15 05:07:17;;;;;;;5.22;3.88;;;;;;;;;;6326971;28;20265;-77
2022/06/15 05:10:21;;;;;;;6.27;4.00;;;;;;;;;;6324463;28;20060;-74
2022/06/15 05:13:22;;;;;;;9.35;4.32;;;;;;;;;;6327717;28;20577;-75
2022/06/15 05:16:24;;;;;;;14.30;6.47;;;;;;;;;;6331466;28;20071;-75
2022/06/15 05:19:29;;;;;;;7.80;4.80;;;;;;;;;;6327963;28;20274;-72
2022/06/15 05:22:31;;;;;;;6.93;4.55;;;;;;;;;;6328361;28;20087;-73
2022/06/15 05:25:32;;;;;;;7.95;4.15;;;;;;;;;;6329800;28;20060;-73
2022/06/15 05:28:34;;;;;;;9.07;4.80;;;;;;;;;;6326736;28;20285;-73
2022/06/15 05:31:36;;;;;;;9.88;3.70;;;;;;;;;;6327955;28;20056;-71
2022/06/15 05:34:39;;;;;;;6.13;2.90;;;;;;;;;;6331294;28;20089;-73
2022/06/15 05:37:41;;;;;;;4.38;3.35;;;;;;;;;;6329655;28;20097;-73
2022/06/15 05:40:43;;;;;;;5.65;2.90;;;;;;;;;;6327060;28;20048;-73
2022/06/15 05:43:45;;;;;;;7.22;3.40;;;;;;;;;;6327868;28;20051;-76
2022/06/15 05:46:46;;;;;;;7.20;3.28;;;;;;;;;;6326265;28;20127;-71
2022/06/15 05:49:49;;;;;;;5.35;3.03;;;;;;;;;;6323575;28;20090;-73
2022/06/15 05:52:51;;;;;;;7.30;3.10;;;;;;;;;;6328192;28;20040;-73
2022/06/15 05:55:53;;;;;;;7.15;3.08;;;;;;;;;;6327756;28;20086;-74
2022/06/15 05:58:54;;;;;;;6.60;3.08;;;;;;;;;;6328736;28;20317;-74
2022/06/15 06:01:56;;;;;;;5.85;2.90;;;;;;;;;;6329757;28;20051;-72
2022/06/15 06:04:59;;;;;;;11.50;3.40;;;;;;;;;;6325889;28;20040;-73
2022/06/15 06:08:00;;;;;;;11.65;3.05;;;;;;;;;;6325920;28;20101;-72
2022/06/15 06:11:02;;;;;;;8.68;2.72;;;;;;;;;;6326172;28;20219;-74
2022/06/15 06:14:04;;;;;;;29.55;4.15;;;;;;;;;;6326923;28;20327;-71
2022/06/15 06:17:06;;;;;;;5.68;2.60;;;;;;;;;;6327856;28;20044;-71
2022/06/15 06:20:11;;;;;;;6.47;2.60;;;;;;;;;;6328785;28;20115;-73
2022/06/15 06:23:13;;;;;;;4.95;2.30;;;;;;;;;;6325516;28;20047;-71
2022/06/15 06:26:20;;;;;;;7.18;2.45;;;;;;;;;;6325922;28;20123;-73
2022/06/15 06:29:22;;;;;;;5.80;3.03;;;;;;;;;;6326901;28;20076;-73
2022/06/15 06:32:23;;;;;;;6.82;2.40;;;;;;;;;;6323975;28;20109;-72
2022/06/15 06:35:26;;;;;;;7.35;2.80;;;;;;;;;;6327318;28;20255;-72
2022/06/15 06:38:28;;;;;;;7.05;2.60;;;;;;;;;;6326033;28;20105;-71
2022/06/15 06:41:32;;;;;;;5.60;2.60;;;;;;;;;;6328527;28;20330;-71
2022/06/15 06:44:33;;;;;;;4.25;2.50;;;;;;;;;;6326146;28;20051;-72
2022/06/15 06:47:35;;;;;;;6.18;2.35;;;;;;;;;;6325650;28;20052;-73
2022/06/15 06:50:39;;;;;;;5.90;2.85;;;;;;;;;;6327194;28;20331;-73
2022/06/15 06:53:40;;;;;;;5.03;2.80;;;;;;;;;;6327769;28;20319;-74
2022/06/15 06:56:42;;;;;;;7.53;2.60;;;;;;;;;;6327907;28;20269;-71
2022/06/15 06:59:45;;;;;;;6.30;3.13;;;;;;;;;;6327692;28;20323;-71
2022/06/15 07:02:46;;;;;;;4.35;2.75;;;;;;;;;;6325372;28;20056;-73
2022/06/15 07:05:49;;;;;;;3.20;2.70;;;;;;;;;;6328465;28;20075;-73
2022/06/15 07:08:51;;;;;;;;;;;;;;;;;;6328456;28;20040;-71
2022/06/15 07:11:52;;;;;;;4.53;2.53;;;;;;;;;;6325408;28;19919;-71
2022/06/15 07:14:54;;;;;;;6.30;2.85;;;;;;;;;;6327396;28;20047;-73
2022/06/15 07:17:58;;;;;;;6.88;2.67;;;;;;;;;;6327245;28;20059;-71
2022/06/15 07:21:04;;;;;;;5.38;2.40;;;;;;;;;;6324692;28;20104;-73
2022/06/15 07:24:06;;;;;;;3.90;2.45;;;;;;;;;;6321333;28;20048;-74
2022/06/15 07:27:08;;;;;;;7.57;2.65;;;;;;;;;;6325420;28;20036;-74
2022/06/15 07:30:13;;;;;;;8.43;2.70;;;;;;;;;;6323811;28;20044;-73
2022/06/15 07:33:16;;;;;;;5.25;2.95;;;;;;;;;;6326945;28;20048;-73
2022/06/15 07:36:19;;;;;;;;;;;;;;;;;;6324149;28;20056;-73
2022/06/15 07:39:23;;;;;;;7.60;3.03;;;;;;;;;;6326213;28;19970;-73
2022/06/15 07:42:25;;;;;;;5.55;2.75;;;;;;;;;;6320622;28;20458;-73
2022/06/15 07:45:27;;;;;;;5.43;2.80;;;;;;;;;;6322638;28;20059;-74
2022/06/15 07:51:53;;;;;;;4.45;2.53;;;;;;;;;;6325745;28;20040;-72
2022/06/15 07:54:55;;;;;;;5.25;2.72;;;;;;;;;;6325497;28;20064;-74
2022/06/15 07:57:56;;;;;;;5.50;2.33;;;;;;;;;;6325345;28;20340;-73
2022/06/15 08:00:58;;;;;;;4.13;2.28;;;;;;;;;;6324539;28;20044;-73
2022/06/15 08:04:00;;;;;;;3.22;2.45;;;;;;;;;;6327747;28;20048;-73
2022/06/15 08:07:06;;;;;;;7.37;2.80;;;;;;;;;;6325505;28;20049;-72
2022/06/15 08:10:10;;;;;;;6.80;2.90;;;;;;;;;;6325459;28;20063;-72
2022/06/15 08:13:11;;;;;;;5.72;1.90;;;;;;;;;;6324674;28;20085;-74
2022/06/15 08:16:13;;;;;;;4.22;2.53;;;;;;;;;;6324885;28;20048;-72
2022/06/15 08:19:15;;;;;;;4.43;2.20;;;;;;;;;;6324544;28;20110;-73
2022/06/15 08:22:19;;;;;;;6.20;2.22;;;;;;;;;;6325748;28;20106;-75
2022/06/15 08:25:24;;;;;;;4.68;2.20;;;;;;;;;;6324336;28;20071;-72
2022/06/15 08:28:28;;;;;;;4.55;2.28;;;;;;;;;;6323352;28;20048;-73
2022/06/15 08:31:29;;;;;;;3.22;1.85;;;;;;;;;;6326874;28;20049;-72
2022/06/15 08:34:33;;;;;;;6.97;1.95;;;;;;;;;;6326511;28;20052;-73
2022/06/15 08:37:36;;;;;;;3.25;1.92;;;;;;;;;;6320748;28;20116;-74
2022/06/15 08:40:44;;;;;;;4.88;2.17;;;;;;;;;;6321581;27;20106;-73
2022/06/15 08:43:57;;;;;;;7.97;2.13;;;;;;;;;;6327072;28;20056;-73
2022/06/15 08:47:05;;;;;;;4.43;2.30;;;;;;;;;;6320702;28;20090;-74
2022/06/15 08:50:11;;;;;;;3.90;2.58;;;;;;;;;;6325669;28;20052;-74
2022/06/15 08:53:17;;;;;;;7.10;2.67;;;;;;;;;;6326075;28;20157;-73
2022/06/15 08:56:23;;;;;;;5.20;2.60;;;;;;;;;;6325352;28;20227;-73
2022/06/15 08:59:29;;;;;;;5.07;2.30;;;;;;;;;;6323841;28;20047;-74
2022/06/15 09:02:33;;;;;;;3.47;2.38;;;;;;;;;;6323332;28;20392;-73
2022/06/15 09:05:43;;;;;;;3.58;2.47;;;;;;;;;;6324829;28;20040;-73
2022/06/15 09:09:05;;;;;;;5.43;2.60;;;;;;;;;;6326484;28;20051;-73
2022/06/15 09:15:42;;;;;;;6.50;1.92;;;;;;;;;;6324368;28;20136;-72
2022/06/15 09:18:47;;;;;;;4.38;2.25;;;;;;;;;;6325287;28;20052;-72
2022/06/15 09:21:52;;;;;;;7.97;2.53;;;;;;;;;;6321818;28;20327;-73
2022/06/15 09:25:00;;;;;;;43.95;37.65;;;;;;;;;;6321744;28;20327;-71
2022/06/15 09:28:05;;;;;;;43.75;32.45;;;;;;;;;;6324066;28;20056;-74
2022/06/15 09:31:12;;;;;;;37.17;26.20;;;;;;;;;;6321144;28;20331;-72
2022/06/15 09:34:16;;;;;;;31.73;20.05;;;;;;;;;;6324147;28;20047;-73
2022/06/15 09:37:20;;;;;;;14.82;8.95;;;;;;;;;;6328186;28;20447;-72
2022/06/15 09:40:28;;;;;;;8.70;5.53;;;;;;;;;;6329704;28;20052;-72
2022/06/15 09:43:35;;;;;;;25.23;15.30;;;;;;;;;;6327506;28;20356;-73
2022/06/15 09:46:42;;;;;;;13.75;5.72;;;;;;;;;;6330763;28;20048;-73
2022/06/15 09:49:52;;;;;;;54.47;37.97;;;;;;;;;;6328895;28;20052;-74
2022/06/15 09:53:08;;;;;;;48.90;37.08;;;;;;;;;;6328930;28;20062;-73
2022/06/15 09:56:13;;;;;;;22.90;16.85;;;;;;;;;;6328186;28;20357;-73
2022/06/15 09:59:18;;;;;;;8.10;4.35;;;;;;;;;;6326718;28;20063;-72
2022/06/15 10:02:23;;;;;;;4.32;2.50;;;;;;;;;;6327843;28;20228;-73
2022/06/15 10:05:27;;;;;;;4.47;3.00;;;;;;;;;;6327256;28;20060;-73
2022/06/15 10:08:29;;;;;;;3.47;2.00;;;;;;;;;;6328922;28;20059;-73
2022/06/15 10:11:35;;;;;;;5.13;2.95;;;;;;;;;;6328402;28;20565;-73
2022/06/15 10:14:37;;;;;;;4.43;2.10;;;;;;;;;;6326231;28;20040;-73
2022/06/15 10:17:42;;;;;;;5.15;2.67;;;;;;;;;;6327787;28;20067;-72
2022/06/15 10:20:56;;;;;;;4.32;2.45;;;;;;;;;;6327226;28;20056;-72
2022/06/15 10:24:02;;;;;;;5.15;3.15;;;;;;;;;;6331327;28;20334;-72
2022/06/15 10:27:29;;;;;;;5.22;2.42;;;;;;;;;;6327649;28;20414;-72
2022/06/15 10:30:31;;;;;;;3.95;2.28;;;;;;;;;;6328976;28;20227;-72
2022/06/15 10:33:36;;;;;;;3.30;2.28;;;;;;;;;;6326468;28;20357;-73
2022/06/15 10:36:38;;;;;;;2.92;2.17;;;;;;;;;;6327378;28;21167;-73
2022/06/15 10:39:41;;;;;;;2.55;2.35;;;;;;;;;;6327604;28;20120;-73
2022/06/15 10:42:51;;;;;;;4.90;2.25;;;;;;;;;;6325126;28;20046;-73
2022/06/15 10:45:58;;;;;;;4.25;2.78;;;;;;;;;;6324460;28;20172;-85
2022/06/15 10:49:01;;;;;;;6.68;2.67;;;;;;;;;;6324019;28;20262;-80
2022/06/15 10:52:04;;;;;;;3.00;2.30;;;;;;;;;;6326612;28;20063;-81
2022/06/15 11:02:18;;;;;;;4.30;2.65;;;;;;;;;;6323794;28;21357;-78
2022/06/15 11:05:22;;;;;;;5.20;2.85;;;;;;;;;;6325910;28;20040;-81
2022/06/15 11:08:26;;;;;;;4.13;2.38;;;;;;;;;;6323100;28;20056;-77
2022/06/15 11:11:28;;;;;;;4.97;2.33;;;;;;;;;;6322295;28;20040;-79
2022/06/15 11:14:33;;;;;;;7.47;3.10;;;;;;;;;;6320846;28;20052;-80
2022/06/15 11:21:00;;;;;;;9.75;3.28;;;;;;;;;;6321425;28;20040;-81
2022/06/15 11:24:04;;;;;;;4.60;3.08;;;;;;;;;;6317171;28;20274;-80
2022/06/15 11:27:11;;;;;;;4.90;2.80;;;;;;;;;;6319609;28;20233;-80
2022/06/15 11:30:21;;;;;;;5.13;3.00;;;;;;;;;;6319564;28;20052;-83
2022/06/15 11:33:26;;;;;;;5.15;2.97;;;;;;;;;;6323871;28;20387;-80
2022/06/15 11:36:32;;;;;;;5.88;2.67;;;;;;;;;;6322119;28;20108;-80
2022/06/15 11:39:37;;;;;;;6.40;3.20;;;;;;;;;;6321055;28;20052;-80
2022/06/15 11:42:39;;;;;;;4.07;3.08;;;;;;;;;;6320828;28;20335;-80
2022/06/15 11:45:53;;;;;;;3.45;2.58;;;;;;;;;;6322215;28;20048;-81
2022/06/15 11:49:03;;;;;;;5.28;3.10;;;;;;;;;;6325148;28;20334;-80
2022/06/15 11:52:23;;;;;;;6.72;3.70;;;;;;;;;;6322640;28;20052;-80
2022/06/15 11:55:29;;;;;;;4.30;3.42;;;;;;;;;;6318684;28;20513;-79
2022/06/15 11:58:37;;;;;;;5.75;3.60;;;;;;;;;;6319121;28;20062;-79
2022/06/15 12:01:47;;;;;;;4.80;3.55;;;;;;;;;;6319744;28;20047;-79
2022/06/15 12:05:04;;;;;;;7.35;3.47;;;;;;;;;;6321872;28;20074;-82
2022/06/15 12:08:15;;;;;;;6.03;3.72;;;;;;;;;;6319821;28;20048;-81
2022/06/15 12:14:48;;;;;;;14.50;4.05;;;;;;;;;;6319906;28;20250;-81
2022/06/15 12:17:57;;;;;;;5.25;4.07;;;;;;;;;;6319561;28;20051;-79
2022/06/15 12:21:02;;;;;;;7.07;3.80;;;;;;;;;;6319113;28;20040;-79
2022/06/15 12:24:10;;;;;;;10.45;6.15;;;;;;;;;;6320918;28;20293;-80
2022/06/15 12:27:15;;;;;;;22.73;18.05;;;;;;;;;;6319218;28;20082;-77
2022/06/15 12:30:27;;;;;;;6.32;4.40;;;;;;;;;;6320624;28;20064;-78
2022/06/15 12:33:34;;;;;;;41.75;37.35;;;;;;;;;;6321589;28;20046;-77
2022/06/15 12:36:41;;;;;;;10.23;7.13;;;;;;;;;;6322383;28;20553;-77
2022/06/15 12:39:48;;;;;;;6.57;4.55;;;;;;;;;;6321954;28;20265;-80
2022/06/15 12:42:53;;;;;;;6.22;4.60;;;;;;;;;;6317114;28;20056;-79
2022/06/15 12:46:03;;;;;;;10.25;4.22;;;;;;;;;;6319859;28;20052;-79
2022/06/15 12:49:17;;;;;;;6.05;4.22;;;;;;;;;;6320692;28;20090;-79
2022/06/15 12:52:22;;;;;;;13.45;4.07;;;;;;;;;;6319592;28;20052;-79
2022/06/15 12:55:28;;;;;;;10.82;4.35;;;;;;;;;;6321747;28;20087;-79
2022/06/15 12:58:33;;;;;;;10.05;4.72;;;;;;;;;;6315803;28;20075;-79
2022/06/15 13:01:40;;;;;;;5.65;4.32;;;;;;;;;;6318426;28;20323;-78
2022/06/15 13:04:56;;;;;;;11.82;4.18;;;;;;;;;;6315255;28;20204;-79
2022/06/15 13:08:24;;;;;;;11.77;4.68;;;;;;;;;;6313743;28;20058;-78
2022/06/15 13:11:27;;;;;;;8.88;4.68;;;;;;;;;;6326606;28;20044;-78
2022/06/15 13:14:32;;;;;;;7.07;4.65;;;;;;;;;;6325826;28;20056;-78
2022/06/15 13:18:11;;;;;;;14.05;4.90;;;;;;;;;;6321182;28;20044;-78
2022/06/15 13:21:16;;;;;;;5.85;4.35;;;;;;;;;;6323317;28;20055;-78
2022/06/15 13:24:18;;;;;;;4.72;4.30;;;;;;;;;;6326006;28;20067;-79
2022/06/15 13:27:22;;;;;;;7.80;4.38;;;;;;;;;;6326355;28;20049;-78
2022/06/15 13:30:26;;;;;;;5.55;4.03;;;;;;;;;;6325528;28;20047;-78
2022/06/15 13:34:00;;;;;;;4.43;4.03;;;;;;;;;;6329084;28;20044;-78
2022/06/15 13:37:23;;;;;;;5.00;4.07;;;;;;;;;;6325803;28;20059;-79
2022/06/15 13:40:25;;;;;;;9.93;4.70;;;;;;;;;;6325748;28;20048;-77
2022/06/15 13:43:29;;;;;;;6.93;4.40;;;;;;;;;;6324357;28;20230;-77
2022/06/15 13:46:32;;;;;;;8.60;4.47;;;;;;;;;;6328643;28;20052;-77
2022/06/15 13:49:38;;;;;;;6.53;4.93;;;;;;;;;;6321143;28;20338;-77
2022/06/15 13:52:42;;;;;;;5.45;4.28;;;;;;;;;;6324041;28;20048;-77
2022/06/15 13:55:55;;;;;;;6.55;4.28;;;;;;;;;;6323840;28;20056;-77
2022/06/15 13:59:10;;;;;;;6.72;4.57;;;;;;;;;;6325613;28;20072;-77
2022/06/15 14:02:22;;;;;;;5.38;4.30;;;;;;;;;;6320231;28;20052;-77
2022/06/15 14:05:42;;;;;;;9.52;4.25;;;;;;;;;;6326318;28;20400;-78
2022/06/15 14:09:03;;;;;;;6.55;4.20;;;;;;;;;;6324635;28;20059;-77
2022/06/15 14:12:21;;;;;;;12.85;4.30;;;;;;;;;;6328485;28;20323;-77
2022/06/15 14:15:35;;;;;;;7.20;3.97;;;;;;;;;;6328206;28;20365;-79
2022/06/15 14:18:42;;;;;;;9.70;4.78;;;;;;;;;;6327540;28;20330;-78
2022/06/15 14:21:44;;;;;;;6.03;4.50;;;;;;;;;;6322092;28;20048;-76
2022/06/15 14:24:47;;;;;;;22.27;16.50;;;;;;;;;;6323517;28;20051;-77
2022/06/15 14:27:53;;;;;;;10.77;6.72;;;;;;;;;;6327402;28;20052;-78
2022/06/15 14:31:00;;;;;;;8.98;7.38;;;;;;;;;;6322645;28;20044;-79
2022/06/15 14:34:09;;;;;;;11.45;5.63;;;;;;;;;;6326665;28;20052;-77
2022/06/15 14:37:21;;;;;;;9.23;5.80;;;;;;;;;;6324412;28;20044;-76
2022/06/15 14:40:31;;;;;;;77.05;51.42;;;;;;;;;;6321086;28;20093;-77
2022/06/15 14:43:35;;;;;;;6.50;5.53;;;;;;;;;;6319961;28;20044;-76
2022/06/15 14:46:39;;;;;;;12.10;6.63;;;;;;;;;;6322867;28;20048;-77
2022/06/15 14:49:47;;;;;;;8.20;4.93;;;;;;;;;;6324081;28;20051;-77
2022/06/15 14:52:49;;;;;;;8.52;4.50;;;;;;;;;;6324445;28;20047;-77
2022/06/15 14:56:00;;;;;;;5.72;4.80;;;;;;;;;;6319334;28;20188;-77
2022/06/15 14:59:05;;;;;;;6.38;4.82;;;;;;;;;;6320689;28;20322;-77
2022/06/15 15:02:08;;;;;;;6.38;4.88;;;;;;;;;;6320698;28;20070;-78
2022/06/15 15:05:10;;;;;;;7.28;4.50;;;;;;;;;;6319808;28;20047;-76
2022/06/15 15:08:25;;;;;;;5.50;4.55;;;;;;;;;;6321636;28;20051;-78
2022/06/15 15:11:32;;;;;;;8.93;4.65;;;;;;;;;;6320993;28;20048;-77
2022/06/15 15:14:34;;;;;;;6.93;4.95;;;;;;;;;;6319918;28;20048;-77
2022/06/15 15:17:49;;;;;;;7.83;4.83;;;;;;;;;;6318466;28;20272;-77
2022/06/15 15:20:53;;;;;;;6.90;5.60;;;;;;;;;;6318558;28;20442;-77
2022/06/15 15:23:56;;;;;;;6.40;4.65;;;;;;;;;;6322277;28;20052;-78
2022/06/15 15:27:02;;;;;;;8.35;4.65;;;;;;;;;;6316956;28;20051;-76
2022/06/15 15:40:20;;;;;;;9.73;5.55;;;;;;;;;;6321376;28;20076;-78
2022/06/15 15:43:25;;;;;;;8.25;5.55;;;;;;;;;;6319148;28;20116;-77
2022/06/15 15:46:26;;;;;;;10.00;5.40;;;;;;;;;;6321005;28;20055;-77
2022/06/15 15:49:30;;;;;;;9.63;6.47;;;;;;;;;;6315577;28;20111;-76
2022/06/15 15:52:32;;;;;;;22.67;10.50;;;;;;;;;;6320613;28;20250;-77
2022/06/15 15:55:34;;;;;;;8.80;5.70;;;;;;;;;;6317003;28;20040;-74
2022/06/15 15:58:37;;;;;;;8.00;6.15;;;;;;;;;;6323559;28;20060;-76
2022/06/15 16:01:39;;;;;;;8.63;5.57;;;;;;;;;;6324655;28;20052;-77
2022/06/15 16:04:41;;;;;;;8.07;6.03;;;;;;;;;;6323265;28;20040;-76
2022/06/15 16:07:44;;;;;;;8.03;5.57;;;;;;;;;;6320657;28;20051;-77
2022/06/15 16:10:48;;;;;;;14.23;7.85;;;;;;;;;;6321064;28;20207;-78
2022/06/15 16:13:51;;;;;;;23.15;10.15;;;;;;;;;;6320887;28;20084;-78
2022/06/15 16:16:53;;;;;;;13.90;6.60;;;;;;;;;;6318427;28;20047;-77
2022/06/15 16:19:56;;;;;;;7.65;6.03;;;;;;;;;;6322871;28;20058;-78
2022/06/15 16:22:58;;;;;;;7.32;5.95;;;;;;;;;;6320012;28;20101;-78
2022/06/15 16:26:00;;;;;;;6.03;5.43;;;;;;;;;;6321843;28;20228;-78
2022/06/15 16:29:04;;;;;;;10.00;5.65;;;;;;;;;;6317728;28;20285;-78
2022/06/15 16:32:07;;;;;;;9.50;5.28;;;;;;;;;;6316899;28;20062;-78
2022/06/15 16:35:09;;;;;;;7.05;5.97;;;;;;;;;;6321403;28;20105;-78
2022/06/15 16:38:13;;;;;;;8.88;5.72;;;;;;;;;;6321563;28;20044;-78
2022/06/15 16:41:15;;;;;;;7.75;5.68;;;;;;;;;;6325014;28;20818;-78
2022/06/15 16:44:19;;;;;;;6.20;5.23;;;;;;;;;;6326002;28;20048;-78
2022/06/15 16:47:20;;;;;;;8.00;6.18;;;;;;;;;;6319335;28;20044;-78
2022/06/15 16:50:22;;;;;;;10.68;6.68;;;;;;;;;;6324018;28;20064;-77
2022/06/15 16:53:24;;;;;;;10.20;5.88;;;;;;;;;;6327914;28;20364;-78
2022/06/15 16:56:27;;;;;;;5.95;5.30;;;;;;;;;;6320544;28;20048;-77
2022/06/15 16:59:33;;;;;;;6.72;5.32;;;;;;;;;;6326611;28;20047;-78
2022/06/15 17:02:35;;;;;;;8.23;5.20;;;;;;;;;;6317507;28;20516;-78
2022/06/15 17:05:37;;;;;;;8.68;5.30;;;;;;;;;;6323302;28;20059;-78
2022/06/15 17:08:42;;;;;;;10.65;5.90;;;;;;;;;;6321684;27;20056;-76
2022/06/15 17:11:44;;;;;;;7.10;6.20;;;;;;;;;;6317562;28;20224;-76
2022/06/15 17:14:47;;;;;;;12.02;5.60;;;;;;;;;;6320310;28;20089;-79
2022/06/15 17:17:49;;;;;;;10.85;6.18;;;;;;;;;;6323834;28;20346;-78
2022/06/15 17:20:51;;;;;;;7.35;5.90;;;;;;;;;;6325763;28;20376;-77
2022/06/15 17:23:59;;;;;;;8.82;6.35;;;;;;;;;;6322695;28;20044;-79
2022/06/15 17:27:01;;;;;;;9.30;5.88;;;;;;;;;;6312844;28;20283;-74
2022/06/15 17:30:06;;;;;;;9.13;5.45;;;;;;;;;;6324176;28;20094;-75
2022/06/15 17:33:08;;;;;;;6.78;5.10;;;;;;;;;;6325169;28;20242;-74
2022/06/15 17:36:10;;;;;;;7.45;6.03;;;;;;;;;;6325526;28;20036;-77
2022/06/15 17:39:13;;;;;;;7.00;6.28;;;;;;;;;;6326203;28;20048;-74
2022/06/15 17:42:15;;;;;;;8.32;5.90;;;;;;;;;;6321175;28;20063;-75
2022/06/15 17:45:18;;;;;;;7.85;5.68;;;;;;;;;;6325836;28;20044;-75
2022/06/15 17:48:20;;;;;;;8.30;5.68;;;;;;;;;;6324104;28;20062;-75
2022/06/15 17:51:22;;;;;;;7.50;6.60;;;;;;;;;;6324024;28;20058;-74
2022/06/15 17:54:24;;;;;;;8.73;6.05;;;;;;;;;;6325571;28;20063;-74
2022/06/15 17:57:25;;;;;;;10.73;6.27;;;;;;;;;;6318956;28;20237;-74
2022/06/15 18:00:29;;;;;;;8.68;6.57;;;;;;;;;;6322239;28;20177;-73
2022/06/15 18:03:32;;;;;;;8.85;6.10;;;;;;;;;;6319829;28;20048;-75
2022/06/15 18:06:34;;;;;;;8.20;5.93;;;;;;;;;;6322033;28;20054;-74
2022/06/15 18:09:36;;;;;;;8.25;6.18;;;;;;;;;;6321242;28;20079;-75
2022/06/15 18:12:39;;;;;;;9.77;6.38;;;;;;;;;;6323610;28;20074;-75
2022/06/15 18:15:43;;;;;;;7.72;5.63;;;;;;;;;;6318652;28;20059;-74
2022/06/15 18:18:52;;;;;;;12.40;8.77;;;;;;;;;;6318216;28;20054;-73
2022/06/15 18:21:56;;;;;;;15.43;10.20;;;;;;;;;;6318921;28;20067;-74
2022/06/15 18:25:00;;;;;;;31.20;20.95;;;;;;;;;;6324278;28;20054;-74
2022/06/15 18:28:03;;;;;;;23.13;15.43;;;;;;;;;;6324403;28;20046;-74
2022/06/15 18:31:07;;;;;;;21.38;13.57;;;;;;;;;;6323084;28;20048;-74
2022/06/15 18:34:11;;;;;;;32.65;21.20;;;;;;;;;;6323556;28;20134;-76
2022/06/15 18:37:16;;;;;;;15.38;10.35;;;;;;;;;;6327205;28;20107;-74
2022/06/15 18:40:18;;;;;;;10.40;6.45;;;;;;;;;;6325562;28;20072;-82
2022/06/15 18:50:13;;;;;;;12.88;7.35;;;;;;;;;;6225984;28;20064;-82
2022/06/15 18:53:16;;;;;;;8.18;5.82;;;;;;;;;;6225972;28;20057;-81
2022/06/15 18:56:18;;;;;;;15.52;6.82;;;;;;;;;;6221564;28;20164;-82
2022/06/15 18:59:20;;;;;;;7.53;5.93;;;;;;;;;;6224504;28;20049;-82
2022/06/15 19:02:23;;;;;;;8.77;5.93;;;;;;;;;;6225723;28;20054;-81
2022/06/15 19:05:27;;;;;;;7.88;6.70;;;;;;;;;;6222348;28;20865;-80